sensor_id;sensor_type;location;lat;lon;timestamp;temperature;humidity
15969;DHT22;8085;53.472;9.794;2022-07-18T00:02:01;16.70;1.00
15969;DHT22;8085;53.472;9.794;2022-07-18T00:04:28;16.70;1.00
15969;DHT22;8085;53.472;9.794;2022-07-18T00:06:55;16.70;1.00
15969;DHT22;8085;53.472;9.794;2022-07-18T00:09:24;16.70;1.00
15969;DHT22;8085;53.472;9.794;2022-07-18T00:11:52;16.70;1.00
15969;DHT22;8085;53.472;9.794;2022-07-18T00:14:20;17.00;1.00
15969;DHT22;8085;53.472;9.794;2022-07-18T00:16:47;17.00;1.00
15969;DHT22;8085;53.472;9.794;2022-07-18T00:19:14;17.00;1.00
15969;DHT22;8085;53.472;9.794;2022-07-18T00:21:41;17.10;1.00
15969;DHT22;8085;53.472;9.794;2022-07-18T00:24:08;17.00;1.00
15969;DHT22;8085;53.472;9.794;2022-07-18T00:26:37;16.90;1.00
15969;DHT22;8085;53.472;9.794;2022-07-18T00:29:04;17.00;1.00
15969;DHT22;8085;53.472;9.794;2022-07-18T00:31:31;17.00;1.00
15969;DHT22;8085;53.472;9.794;2022-07-18T00:33:58;17.00;1.00
15969;DHT22;8085;53.472;9.794;2022-07-18T00:36:25;17.00;1.00
15969;DHT22;8085;53.472;9.794;2022-07-18T00:38:52;16.90;1.00
15969;DHT22;8085;53.472;9.794;2022-07-18T00:41:19;16.80;1.00
15969;DHT22;8085;53.472;9.794;2022-07-18T00:43:48;16.80;1.00
15969;DHT22;8085;53.472;9.794;2022-07-18T00:46:15;16.80;1.00
15969;DHT22;8085;53.472;9.794;2022-07-18T00:48:42;16.50;1.00
15969;DHT22;8085;53.472;9.794;2022-07-18T00:51:09;16.40;1.00
15969;DHT22;8085;53.472;9.794;2022-07-18T00:53:36;16.40;1.00
15969;DHT22;8085;53.472;9.794;2022-07-18T00:56:04;16.30;1.00
15969;DHT22;8085;53.472;9.794;2022-07-18T00:58:31;16.30;1.00
15969;DHT22;8085;53.472;9.794;2022-07-18T01:01:00;16.20;1.00
15969;DHT22;8085;53.472;9.794;2022-07-18T01:03:44;16.20;1.00
15969;DHT22;8085;53.472;9.794;2022-07-18T01:06:12;16.20;1.00
15969;DHT22;8085;53.472;9.794;2022-07-18T01:08:39;16.00;1.00
15969;DHT22;8085;53.472;9.794;2022-07-18T01:11:08;15.80;1.00
15969;DHT22;8085;53.472;9.794;2022-07-18T01:13:36;15.70;1.00
15969;DHT22;8085;53.472;9.794;2022-07-18T01:16:05;15.70;1.00
15969;DHT22;8085;53.472;9.794;2022-07-18T01:18:33;15.70;1.00
15969;DHT22;8085;53.472;9.794;2022-07-18T01:21:01;15.70;1.00
15969;DHT22;8085;53.472;9.794;2022-07-18T01:23:28;15.60;1.00
15969;DHT22;8085;53.472;9.794;2022-07-18T01:25:55;15.80;1.00
15969;DHT22;8085;53.472;9.794;2022-07-18T01:28:22;15.80;1.00
15969;DHT22;8085;53.472;9.794;2022-07-18T01:30:49;15.70;1.00
15969;DHT22;8085;53.472;9.794;2022-07-18T01:33:16;15.60;1.00
15969;DHT22;8085;53.472;9.794;2022-07-18T01:35:43;15.50;1.00
15969;DHT22;8085;53.472;9.794;2022-07-18T01:38:12;15.40;1.00
15969;DHT22;8085;53.472;9.794;2022-07-18T01:40:39;15.30;1.00
15969;DHT22;8085;53.472;9.794;2022-07-18T01:43:06;15.30;1.00
15969;DHT22;8085;53.472;9.794;2022-07-18T01:45:33;15.20;1.00
15969;DHT22;8085;53.472;9.794;2022-07-18T01:48:00;15.20;2.40
15969;DHT22;8085;53.472;9.794;2022-07-18T01:50:27;15.20;3.00
15969;DHT22;8085;53.472;9.794;2022-07-18T01:52:54;15.30;6.20
15969;DHT22;8085;53.472;9.794;2022-07-18T01:55:23;15.20;1.00
15969;DHT22;8085;53.472;9.794;2022-07-18T01:57:50;15.10;1.00
15969;DHT22;8085;53.472;9.794;2022-07-18T02:00:17;15.10;9.70
15969;DHT22;8085;53.472;9.794;2022-07-18T02:02:44;15.10;7.80
15969;DHT22;8085;53.472;9.794;2022-07-18T02:05:11;15.20;9.80
15969;DHT22;8085;53.472;9.794;2022-07-18T02:07:39;15.30;1.00
15969;DHT22;8085;53.472;9.794;2022-07-18T02:10:08;15.20;1.00
15969;DHT22;8085;53.472;9.794;2022-07-18T02:12:38;15.10;1.00
15969;DHT22;8085;53.472;9.794;2022-07-18T02:15:07;15.20;3.70
15969;DHT22;8085;53.472;9.794;2022-07-18T02:17:34;15.20;1.00
15969;DHT22;8085;53.472;9.794;2022-07-18T02:20:02;15.20;1.00
15969;DHT22;8085;53.472;9.794;2022-07-18T02:22:29;15.20;1.00
15969;DHT22;8085;53.472;9.794;2022-07-18T02:24:56;15.20;1.70
15969;DHT22;8085;53.472;9.794;2022-07-18T02:27:23;15.20;10.10
15969;DHT22;8085;53.472;9.794;2022-07-18T02:29:51;15.20;16.70
15969;DHT22;8085;53.472;9.794;2022-07-18T02:32:18;15.20;18.40
15969;DHT22;8085;53.472;9.794;2022-07-18T02:34:46;15.20;15.10
15969;DHT22;8085;53.472;9.794;2022-07-18T02:37:13;15.30;17.20
15969;DHT22;8085;53.472;9.794;2022-07-18T02:39:40;15.30;9.60
15969;DHT22;8085;53.472;9.794;2022-07-18T02:42:07;15.20;9.60
15969;DHT22;8085;53.472;9.794;2022-07-18T02:44:34;15.20;9.40
15969;DHT22;8085;53.472;9.794;2022-07-18T02:47:03;15.10;17.70
15969;DHT22;8085;53.472;9.794;2022-07-18T02:49:30;15.20;14.50
15969;DHT22;8085;53.472;9.794;2022-07-18T02:51:59;15.20;12.50
15969;DHT22;8085;53.472;9.794;2022-07-18T02:54:26;15.20;8.90
15969;DHT22;8085;53.472;9.794;2022-07-18T02:56:54;15.20;5.80
15969;DHT22;8085;53.472;9.794;2022-07-18T02:59:21;15.10;10.60
15969;DHT22;8085;53.472;9.794;2022-07-18T03:01:48;15.10;12.40
15969;DHT22;8085;53.472;9.794;2022-07-18T03:04:17;15.20;11.70
15969;DHT22;8085;53.472;9.794;2022-07-18T03:06:44;15.10;12.60
15969;DHT22;8085;53.472;9.794;2022-07-18T03:09:13;15.00;15.80
15969;DHT22;8085;53.472;9.794;2022-07-18T03:11:40;15.00;14.70
15969;DHT22;8085;53.472;9.794;2022-07-18T03:14:07;14.90;20.20
15969;DHT22;8085;53.472;9.794;2022-07-18T03:16:34;14.90;25.50
15969;DHT22;8085;53.472;9.794;2022-07-18T03:19:01;14.80;28.30
15969;DHT22;8085;53.472;9.794;2022-07-18T03:21:29;14.70;30.90
15969;DHT22;8085;53.472;9.794;2022-07-18T03:23:56;14.70;34.40
15969;DHT22;8085;53.472;9.794;2022-07-18T03:26:23;14.70;36.00
15969;DHT22;8085;53.472;9.794;2022-07-18T03:28:50;14.80;41.20
15969;DHT22;8085;53.472;9.794;2022-07-18T03:31:17;14.80;32.20
15969;DHT22;8085;53.472;9.794;2022-07-18T03:33:44;14.90;26.20
15969;DHT22;8085;53.472;9.794;2022-07-18T03:36:11;14.90;21.50
15969;DHT22;8085;53.472;9.794;2022-07-18T03:38:40;14.90;11.90
15969;DHT22;8085;53.472;9.794;2022-07-18T03:41:09;14.90;8.70
15969;DHT22;8085;53.472;9.794;2022-07-18T03:43:36;15.00;7.80
15969;DHT22;8085;53.472;9.794;2022-07-18T03:46:03;15.00;1.00
15969;DHT22;8085;53.472;9.794;2022-07-18T03:48:30;14.80;2.90
15969;DHT22;8085;53.472;9.794;2022-07-18T03:50:57;14.70;17.70
15969;DHT22;8085;53.472;9.794;2022-07-18T03:53:24;14.80;22.20
15969;DHT22;8085;53.472;9.794;2022-07-18T03:55:53;14.90;17.40
15969;DHT22;8085;53.472;9.794;2022-07-18T03:58:20;15.10;14.20
15969;DHT22;8085;53.472;9.794;2022-07-18T04:00:47;15.20;6.90
15969;DHT22;8085;53.472;9.794;2022-07-18T04:03:14;15.30;1.00
15969;DHT22;8085;53.472;9.794;2022-07-18T04:05:41;15.40;1.00
15969;DHT22;8085;53.472;9.794;2022-07-18T04:08:08;15.40;1.00
15969;DHT22;8085;53.472;9.794;2022-07-18T04:10:35;15.50;1.00
15969;DHT22;8085;53.472;9.794;2022-07-18T04:13:07;15.60;1.00
15969;DHT22;8085;53.472;9.794;2022-07-18T04:15:36;15.80;1.00
15969;DHT22;8085;53.472;9.794;2022-07-18T04:18:04;15.90;1.00
15969;DHT22;8085;53.472;9.794;2022-07-18T04:20:31;15.90;1.00
15969;DHT22;8085;53.472;9.794;2022-07-18T04:23:00;15.90;1.00
15969;DHT22;8085;53.472;9.794;2022-07-18T04:25:32;15.90;1.00
15969;DHT22;8085;53.472;9.794;2022-07-18T04:27:59;15.90;1.00
15969;DHT22;8085;53.472;9.794;2022-07-18T04:30:28;16.00;1.00
15969;DHT22;8085;53.472;9.794;2022-07-18T04:32:55;16.00;1.00
15969;DHT22;8085;53.472;9.794;2022-07-18T04:35:23;15.90;1.00
15969;DHT22;8085;53.472;9.794;2022-07-18T04:37:51;15.90;1.00
15969;DHT22;8085;53.472;9.794;2022-07-18T04:40:18;15.80;1.00
15969;DHT22;8085;53.472;9.794;2022-07-18T04:42:46;15.80;1.00
15969;DHT22;8085;53.472;9.794;2022-07-18T04:45:13;15.90;1.00
15969;DHT22;8085;53.472;9.794;2022-07-18T04:47:42;16.00;1.00
15969;DHT22;8085;53.472;9.794;2022-07-18T04:50:09;16.00;1.00
15969;DHT22;8085;53.472;9.794;2022-07-18T04:52:37;16.00;1.00
15969;DHT22;8085;53.472;9.794;2022-07-18T04:55:05;16.10;1.00
15969;DHT22;8085;53.472;9.794;2022-07-18T04:57:33;16.20;1.00
15969;DHT22;8085;53.472;9.794;2022-07-18T05:00:01;16.20;1.00
15969;DHT22;8085;53.472;9.794;2022-07-18T05:02:28;16.20;1.00
15969;DHT22;8085;53.472;9.794;2022-07-18T05:04:56;16.30;1.00
15969;DHT22;8085;53.472;9.794;2022-07-18T05:07:23;16.40;1.00
15969;DHT22;8085;53.472;9.794;2022-07-18T05:09:50;16.30;1.00
15969;DHT22;8085;53.472;9.794;2022-07-18T05:12:17;16.50;1.00
15969;DHT22;8085;53.472;9.794;2022-07-18T05:14:49;16.60;1.00
15969;DHT22;8085;53.472;9.794;2022-07-18T05:17:16;16.70;1.00
15969;DHT22;8085;53.472;9.794;2022-07-18T05:19:42;16.70;1.00
15969;DHT22;8085;53.472;9.794;2022-07-18T05:22:11;16.70;1.00
15969;DHT22;8085;53.472;9.794;2022-07-18T05:24:38;16.80;1.00
15969;DHT22;8085;53.472;9.794;2022-07-18T05:27:05;16.90;1.00
15969;DHT22;8085;53.472;9.794;2022-07-18T05:29:35;16.90;1.00
15969;DHT22;8085;53.472;9.794;2022-07-18T05:32:02;16.90;1.00
15969;DHT22;8085;53.472;9.794;2022-07-18T05:34:29;16.90;1.00
15969;DHT22;8085;53.472;9.794;2022-07-18T05:36:57;16.90;1.00
15969;DHT22;8085;53.472;9.794;2022-07-18T05:39:25;16.90;1.00
15969;DHT22;8085;53.472;9.794;2022-07-18T05:41:52;17.00;1.00
15969;DHT22;8085;53.472;9.794;2022-07-18T05:44:20;17.00;1.00
15969;DHT22;8085;53.472;9.794;2022-07-18T05:46:49;17.10;1.00
15969;DHT22;8085;53.472;9.794;2022-07-18T05:49:16;17.20;1.00
15969;DHT22;8085;53.472;9.794;2022-07-18T05:51:44;17.30;1.00
15969;DHT22;8085;53.472;9.794;2022-07-18T05:54:11;17.50;1.00
15969;DHT22;8085;53.472;9.794;2022-07-18T05:56:39;17.70;1.00
15969;DHT22;8085;53.472;9.794;2022-07-18T05:59:09;17.80;1.00
15969;DHT22;8085;53.472;9.794;2022-07-18T06:01:36;17.90;1.00
15969;DHT22;8085;53.472;9.794;2022-07-18T06:04:04;18.10;1.00
15969;DHT22;8085;53.472;9.794;2022-07-18T06:06:31;18.20;1.00
15969;DHT22;8085;53.472;9.794;2022-07-18T06:08:58;18.50;1.00
15969;DHT22;8085;53.472;9.794;2022-07-18T06:11:25;18.80;99.90
15969;DHT22;8085;53.472;9.794;2022-07-18T06:13:54;19.00;99.90
15969;DHT22;8085;53.472;9.794;2022-07-18T06:16:21;19.20;1.00
15969;DHT22;8085;53.472;9.794;2022-07-18T06:18:48;19.20;1.00
15969;DHT22;8085;53.472;9.794;2022-07-18T06:21:15;19.20;1.00
15969;DHT22;8085;53.472;9.794;2022-07-18T06:23:42;19.20;1.00
15969;DHT22;8085;53.472;9.794;2022-07-18T06:26:08;19.30;1.00
15969;DHT22;8085;53.472;9.794;2022-07-18T06:28:35;19.30;1.00
15969;DHT22;8085;53.472;9.794;2022-07-18T06:31:04;19.30;1.00
15969;DHT22;8085;53.472;9.794;2022-07-18T06:33:31;19.40;1.00
15969;DHT22;8085;53.472;9.794;2022-07-18T06:35:58;19.50;99.90
15969;DHT22;8085;53.472;9.794;2022-07-18T06:38:25;19.50;99.90
15969;DHT22;8085;53.472;9.794;2022-07-18T06:40:52;19.50;39.40
15969;DHT22;8085;53.472;9.794;2022-07-18T06:43:19;19.70;99.90
15969;DHT22;8085;53.472;9.794;2022-07-18T06:45:46;19.70;1.00
15969;DHT22;8085;53.472;9.794;2022-07-18T06:48:15;19.80;99.90
15969;DHT22;8085;53.472;9.794;2022-07-18T06:50:42;20.00;1.00
15969;DHT22;8085;53.472;9.794;2022-07-18T06:53:09;20.10;1.00
15969;DHT22;8085;53.472;9.794;2022-07-18T06:55:36;20.30;1.00
15969;DHT22;8085;53.472;9.794;2022-07-18T06:58:03;20.40;1.00
15969;DHT22;8085;53.472;9.794;2022-07-18T07:00:30;20.40;99.90
15969;DHT22;8085;53.472;9.794;2022-07-18T07:02:57;20.30;99.90
15969;DHT22;8085;53.472;9.794;2022-07-18T07:05:25;20.10;1.00
15969;DHT22;8085;53.472;9.794;2022-07-18T07:07:52;20.00;1.00
15969;DHT22;8085;53.472;9.794;2022-07-18T07:10:19;20.10;99.90
15969;DHT22;8085;53.472;9.794;2022-07-18T07:12:48;20.10;94.70
15969;DHT22;8085;53.472;9.794;2022-07-18T07:15:18;20.10;99.90
15969;DHT22;8085;53.472;9.794;2022-07-18T07:17:45;20.10;1.00
15969;DHT22;8085;53.472;9.794;2022-07-18T07:20:12;20.30;99.90
15969;DHT22;8085;53.472;9.794;2022-07-18T07:22:45;20.40;99.90
15969;DHT22;8085;53.472;9.794;2022-07-18T07:25:13;20.50;99.90
15969;DHT22;8085;53.472;9.794;2022-07-18T07:27:40;20.50;99.90
15969;DHT22;8085;53.472;9.794;2022-07-18T07:30:10;20.40;1.00
15969;DHT22;8085;53.472;9.794;2022-07-18T07:32:39;20.40;99.90
15969;DHT22;8085;53.472;9.794;2022-07-18T07:35:09;20.60;1.00
15969;DHT22;8085;53.472;9.794;2022-07-18T07:37:37;20.80;1.00
15969;DHT22;8085;53.472;9.794;2022-07-18T07:40:07;20.90;99.90
15969;DHT22;8085;53.472;9.794;2022-07-18T07:42:34;21.00;99.90
15969;DHT22;8085;53.472;9.794;2022-07-18T07:45:02;21.20;1.00
15969;DHT22;8085;53.472;9.794;2022-07-18T07:47:34;21.40;1.00
15969;DHT22;8085;53.472;9.794;2022-07-18T07:50:03;21.40;99.90
15969;DHT22;8085;53.472;9.794;2022-07-18T07:52:30;21.60;1.00
15969;DHT22;8085;53.472;9.794;2022-07-18T07:54:57;22.00;99.90
15969;DHT22;8085;53.472;9.794;2022-07-18T07:57:25;22.30;1.00
15969;DHT22;8085;53.472;9.794;2022-07-18T07:59:52;22.60;1.00
15969;DHT22;8085;53.472;9.794;2022-07-18T08:02:19;22.70;1.00
15969;DHT22;8085;53.472;9.794;2022-07-18T08:04:48;23.00;1.00
15969;DHT22;8085;53.472;9.794;2022-07-18T08:07:16;23.10;51.00
15969;DHT22;8085;53.472;9.794;2022-07-18T08:09:46;23.00;1.00
15969;DHT22;8085;53.472;9.794;2022-07-18T08:12:19;22.80;99.90
15969;DHT22;8085;53.472;9.794;2022-07-18T08:14:50;22.50;99.90
15969;DHT22;8085;53.472;9.794;2022-07-18T08:20:10;22.40;99.90
15969;DHT22;8085;53.472;9.794;2022-07-18T08:22:52;22.80;99.90
15969;DHT22;8085;53.472;9.794;2022-07-18T08:25:19;22.90;99.90
15969;DHT22;8085;53.472;9.794;2022-07-18T08:27:46;23.20;99.90
15969;DHT22;8085;53.472;9.794;2022-07-18T08:30:15;23.40;16.10
15969;DHT22;8085;53.472;9.794;2022-07-18T08:32:42;23.60;99.90
15969;DHT22;8085;53.472;9.794;2022-07-18T08:35:10;23.60;99.90
15969;DHT22;8085;53.472;9.794;2022-07-18T08:37:37;23.70;65.80
15969;DHT22;8085;53.472;9.794;2022-07-18T08:40:05;23.80;47.20
15969;DHT22;8085;53.472;9.794;2022-07-18T08:42:40;24.00;1.00
15969;DHT22;8085;53.472;9.794;2022-07-18T08:45:08;24.20;1.00
15969;DHT22;8085;53.472;9.794;2022-07-18T08:47:36;24.30;1.00
15969;DHT22;8085;53.472;9.794;2022-07-18T08:50:05;24.40;1.00
15969;DHT22;8085;53.472;9.794;2022-07-18T08:52:40;24.30;1.00
15969;DHT22;8085;53.472;9.794;2022-07-18T08:55:08;24.30;1.00
15969;DHT22;8085;53.472;9.794;2022-07-18T08:57:36;24.20;1.00
15969;DHT22;8085;53.472;9.794;2022-07-18T09:00:04;24.10;1.00
15969;DHT22;8085;53.472;9.794;2022-07-18T09:02:39;24.10;1.00
15969;DHT22;8085;53.472;9.794;2022-07-18T09:05:17;23.80;1.00
15969;DHT22;8085;53.472;9.794;2022-07-18T09:07:45;23.80;1.00
15969;DHT22;8085;53.472;9.794;2022-07-18T09:10:12;24.10;1.00
15969;DHT22;8085;53.472;9.794;2022-07-18T09:12:55;24.40;99.90
15969;DHT22;8085;53.472;9.794;2022-07-18T09:15:26;24.70;1.00
15969;DHT22;8085;53.472;9.794;2022-07-18T09:17:56;24.90;99.90
15969;DHT22;8085;53.472;9.794;2022-07-18T09:20:23;25.00;99.90
15969;DHT22;8085;53.472;9.794;2022-07-18T09:22:50;25.30;1.00
15969;DHT22;8085;53.472;9.794;2022-07-18T09:25:19;25.40;1.00
15969;DHT22;8085;53.472;9.794;2022-07-18T09:27:51;25.50;1.00
15969;DHT22;8085;53.472;9.794;2022-07-18T09:30:24;25.60;99.90
15969;DHT22;8085;53.472;9.794;2022-07-18T09:33:05;25.70;99.90
15969;DHT22;8085;53.472;9.794;2022-07-18T09:35:42;25.80;99.90
15969;DHT22;8085;53.472;9.794;2022-07-18T09:38:11;25.80;99.90
15969;DHT22;8085;53.472;9.794;2022-07-18T09:40:39;25.90;99.90
15969;DHT22;8085;53.472;9.794;2022-07-18T09:43:08;26.00;99.90
15969;DHT22;8085;53.472;9.794;2022-07-18T09:45:36;26.20;99.90
15969;DHT22;8085;53.472;9.794;2022-07-18T09:48:07;26.40;99.90
15969;DHT22;8085;53.472;9.794;2022-07-18T09:50:35;26.50;99.90
15969;DHT22;8085;53.472;9.794;2022-07-18T09:53:12;26.50;99.90
15969;DHT22;8085;53.472;9.794;2022-07-18T09:55:45;26.80;30.10
15969;DHT22;8085;53.472;9.794;2022-07-18T09:58:15;26.70;42.30
15969;DHT22;8085;53.472;9.794;2022-07-18T10:00:42;26.60;48.90
15969;DHT22;8085;53.472;9.794;2022-07-18T10:03:37;26.30;27.30
15969;DHT22;8085;53.472;9.794;2022-07-18T10:06:24;26.30;21.80
15969;DHT22;8085;53.472;9.794;2022-07-18T10:08:53;26.30;99.90
15969;DHT22;8085;53.472;9.794;2022-07-18T10:11:21;26.30;9.00
15969;DHT22;8085;53.472;9.794;2022-07-18T10:13:50;26.40;44.70
15969;DHT22;8085;53.472;9.794;2022-07-18T10:16:18;26.30;1.00
15969;DHT22;8085;53.472;9.794;2022-07-18T10:18:46;26.20;99.90
15969;DHT22;8085;53.472;9.794;2022-07-18T10:21:14;26.10;20.30
15969;DHT22;8085;53.472;9.794;2022-07-18T10:23:49;26.00;17.00
15969;DHT22;8085;53.472;9.794;2022-07-18T10:26:18;26.10;19.90
15969;DHT22;8085;53.472;9.794;2022-07-18T10:29:13;26.50;1.00
15969;DHT22;8085;53.472;9.794;2022-07-18T10:31:58;26.80;1.00
15969;DHT22;8085;53.472;9.794;2022-07-18T10:34:31;26.80;1.00
15969;DHT22;8085;53.472;9.794;2022-07-18T10:37:09;27.10;1.00
15969;DHT22;8085;53.472;9.794;2022-07-18T10:39:37;27.10;1.00
15969;DHT22;8085;53.472;9.794;2022-07-18T10:42:21;27.30;1.00
15969;DHT22;8085;53.472;9.794;2022-07-18T10:44:50;27.10;1.00
15969;DHT22;8085;53.472;9.794;2022-07-18T10:47:19;27.10;1.00
15969;DHT22;8085;53.472;9.794;2022-07-18T10:50:17;27.20;1.00
15969;DHT22;8085;53.472;9.794;2022-07-18T10:52:59;26.90;1.00
15969;DHT22;8085;53.472;9.794;2022-07-18T10:55:33;26.70;1.00
15969;DHT22;8085;53.472;9.794;2022-07-18T10:58:20;26.70;1.00
15969;DHT22;8085;53.472;9.794;2022-07-18T11:00:52;26.70;1.00
15969;DHT22;8085;53.472;9.794;2022-07-18T11:03:29;26.90;1.00
15969;DHT22;8085;53.472;9.794;2022-07-18T11:05:57;27.00;1.00
15969;DHT22;8085;53.472;9.794;2022-07-18T11:08:25;27.20;1.00
15969;DHT22;8085;53.472;9.794;2022-07-18T11:11:12;27.70;1.00
15969;DHT22;8085;53.472;9.794;2022-07-18T11:13:45;28.20;1.00
15969;DHT22;8085;53.472;9.794;2022-07-18T11:16:18;28.40;1.00
15969;DHT22;8085;53.472;9.794;2022-07-18T11:19:15;28.30;1.00
15969;DHT22;8085;53.472;9.794;2022-07-18T11:21:46;28.20;1.00
15969;DHT22;8085;53.472;9.794;2022-07-18T11:24:14;27.90;1.00
15969;DHT22;8085;53.472;9.794;2022-07-18T11:26:46;27.60;1.00
15969;DHT22;8085;53.472;9.794;2022-07-18T11:29:21;27.30;1.00
15969;DHT22;8085;53.472;9.794;2022-07-18T11:31:57;27.40;1.00
15969;DHT22;8085;53.472;9.794;2022-07-18T11:34:27;27.40;1.00
15969;DHT22;8085;53.472;9.794;2022-07-18T11:36:56;27.40;1.00
15969;DHT22;8085;53.472;9.794;2022-07-18T11:39:31;27.30;1.00
15969;DHT22;8085;53.472;9.794;2022-07-18T11:42:11;27.60;1.00
15969;DHT22;8085;53.472;9.794;2022-07-18T11:44:42;27.80;1.00
15969;DHT22;8085;53.472;9.794;2022-07-18T11:47:10;27.80;1.00
15969;DHT22;8085;53.472;9.794;2022-07-18T11:50:01;28.00;1.00
15969;DHT22;8085;53.472;9.794;2022-07-18T11:52:30;28.10;1.00
15969;DHT22;8085;53.472;9.794;2022-07-18T11:55:03;28.30;1.00
15969;DHT22;8085;53.472;9.794;2022-07-18T11:58:03;28.30;1.00
15969;DHT22;8085;53.472;9.794;2022-07-18T12:00:28;28.50;1.00
15969;DHT22;8085;53.472;9.794;2022-07-18T12:03:06;28.60;1.00
15969;DHT22;8085;53.472;9.794;2022-07-18T12:05:35;28.70;1.00
15969;DHT22;8085;53.472;9.794;2022-07-18T12:08:32;28.30;1.00
15969;DHT22;8085;53.472;9.794;2022-07-18T12:11:17;28.30;1.00
15969;DHT22;8085;53.472;9.794;2022-07-18T12:14:14;28.60;99.90
15969;DHT22;8085;53.472;9.794;2022-07-18T12:16:46;28.50;1.00
15969;DHT22;8085;53.472;9.794;2022-07-18T12:19:15;28.50;1.00
15969;DHT22;8085;53.472;9.794;2022-07-18T12:21:49;28.40;99.90
15969;DHT22;8085;53.472;9.794;2022-07-18T12:24:28;28.70;99.90
15969;DHT22;8085;53.472;9.794;2022-07-18T12:27:13;28.60;99.90
15969;DHT22;8085;53.472;9.794;2022-07-18T12:30:11;28.70;99.90
15969;DHT22;8085;53.472;9.794;2022-07-18T12:32:47;28.60;99.90
15969;DHT22;8085;53.472;9.794;2022-07-18T12:35:20;28.90;99.90
15969;DHT22;8085;53.472;9.794;2022-07-18T12:37:59;29.10;99.90
15969;DHT22;8085;53.472;9.794;2022-07-18T12:40:44;29.40;99.90
15969;DHT22;8085;53.472;9.794;2022-07-18T12:43:16;29.40;99.90
15969;DHT22;8085;53.472;9.794;2022-07-18T12:45:55;29.40;99.90
15969;DHT22;8085;53.472;9.794;2022-07-18T12:48:26;29.20;99.90
15969;DHT22;8085;53.472;9.794;2022-07-18T12:51:09;29.50;99.90
15969;DHT22;8085;53.472;9.794;2022-07-18T12:53:40;29.60;99.90
15969;DHT22;8085;53.472;9.794;2022-07-18T12:56:07;29.50;99.90
15969;DHT22;8085;53.472;9.794;2022-07-18T12:58:50;29.30;99.90
15969;DHT22;8085;53.472;9.794;2022-07-18T13:08:30;28.90;99.90
15969;DHT22;8085;53.472;9.794;2022-07-18T13:44:33;28.90;99.90
15969;DHT22;8085;53.472;9.794;2022-07-18T13:47:00;29.10;99.90
15969;DHT22;8085;53.472;9.794;2022-07-18T13:49:29;29.20;99.90
15969;DHT22;8085;53.472;9.794;2022-07-18T13:51:56;29.50;99.90
15969;DHT22;8085;53.472;9.794;2022-07-18T13:54:23;29.70;99.90
15969;DHT22;8085;53.472;9.794;2022-07-18T13:56:50;30.00;99.90
15969;DHT22;8085;53.472;9.794;2022-07-18T13:59:17;30.10;99.90
15969;DHT22;8085;53.472;9.794;2022-07-18T14:01:44;30.00;99.90
15969;DHT22;8085;53.472;9.794;2022-07-18T14:04:11;30.00;99.90
15969;DHT22;8085;53.472;9.794;2022-07-18T14:06:39;30.00;99.90
15969;DHT22;8085;53.472;9.794;2022-07-18T14:09:06;30.00;99.90
15969;DHT22;8085;53.472;9.794;2022-07-18T14:11:34;30.00;99.90
15969;DHT22;8085;53.472;9.794;2022-07-18T14:14:02;29.90;99.90
15969;DHT22;8085;53.472;9.794;2022-07-18T14:16:29;29.80;99.90
15969;DHT22;8085;53.472;9.794;2022-07-18T14:18:57;29.80;99.90
15969;DHT22;8085;53.472;9.794;2022-07-18T14:21:24;29.80;99.90
15969;DHT22;8085;53.472;9.794;2022-07-18T14:23:52;30.00;99.90
15969;DHT22;8085;53.472;9.794;2022-07-18T14:26:19;30.10;99.90
15969;DHT22;8085;53.472;9.794;2022-07-18T14:28:55;30.40;99.90
15969;DHT22;8085;53.472;9.794;2022-07-18T14:31:22;30.60;99.90
15969;DHT22;8085;53.472;9.794;2022-07-18T14:33:49;30.70;99.90
15969;DHT22;8085;53.472;9.794;2022-07-18T14:36:16;30.50;99.90
15969;DHT22;8085;53.472;9.794;2022-07-18T14:38:43;30.40;99.90
15969;DHT22;8085;53.472;9.794;2022-07-18T14:41:12;30.20;99.90
15969;DHT22;8085;53.472;9.794;2022-07-18T14:43:39;30.50;99.90
15969;DHT22;8085;53.472;9.794;2022-07-18T14:46:06;30.60;99.90
15969;DHT22;8085;53.472;9.794;2022-07-18T14:48:33;30.60;99.90
15969;DHT22;8085;53.472;9.794;2022-07-18T14:51:00;30.70;99.90
15969;DHT22;8085;53.472;9.794;2022-07-18T14:53:28;30.50;99.90
15969;DHT22;8085;53.472;9.794;2022-07-18T14:55:55;30.50;99.90
15969;DHT22;8085;53.472;9.794;2022-07-18T14:58:26;30.40;99.90
15969;DHT22;8085;53.472;9.794;2022-07-18T15:00:53;30.40;99.90
15969;DHT22;8085;53.472;9.794;2022-07-18T15:03:20;30.40;99.90
15969;DHT22;8085;53.472;9.794;2022-07-18T15:05:47;30.60;99.90
15969;DHT22;8085;53.472;9.794;2022-07-18T15:08:14;30.40;99.90
15969;DHT22;8085;53.472;9.794;2022-07-18T15:10:41;30.60;99.90
15969;DHT22;8085;53.472;9.794;2022-07-18T15:13:08;30.40;99.90
15969;DHT22;8085;53.472;9.794;2022-07-18T15:15:37;30.20;99.90
15969;DHT22;8085;53.472;9.794;2022-07-18T15:18:03;30.30;99.90
15969;DHT22;8085;53.472;9.794;2022-07-18T15:20:30;30.30;99.90
15969;DHT22;8085;53.472;9.794;2022-07-18T15:22:57;30.30;99.90
15969;DHT22;8085;53.472;9.794;2022-07-18T15:25:24;30.30;99.90
15969;DHT22;8085;53.472;9.794;2022-07-18T15:27:51;30.20;99.90
15969;DHT22;8085;53.472;9.794;2022-07-18T15:30:18;30.10;99.90
15969;DHT22;8085;53.472;9.794;2022-07-18T15:32:46;29.80;99.90
15969;DHT22;8085;53.472;9.794;2022-07-18T15:35:13;29.90;99.90
15969;DHT22;8085;53.472;9.794;2022-07-18T15:37:40;29.90;99.90
15969;DHT22;8085;53.472;9.794;2022-07-18T15:40:08;29.70;99.90
15969;DHT22;8085;53.472;9.794;2022-07-18T15:42:35;29.70;99.90
15969;DHT22;8085;53.472;9.794;2022-07-18T15:45:03;29.70;99.90
15969;DHT22;8085;53.472;9.794;2022-07-18T15:47:30;29.70;99.90
15969;DHT22;8085;53.472;9.794;2022-07-18T15:49:58;29.60;99.90
15969;DHT22;8085;53.472;9.794;2022-07-18T15:52:25;29.40;99.90
15969;DHT22;8085;53.472;9.794;2022-07-18T15:55:06;29.40;99.90
15969;DHT22;8085;53.472;9.794;2022-07-18T15:57:33;29.30;99.90
15969;DHT22;8085;53.472;9.794;2022-07-18T16:00:00;29.40;99.90
15969;DHT22;8085;53.472;9.794;2022-07-18T16:02:27;29.50;99.90
15969;DHT22;8085;53.472;9.794;2022-07-18T16:04:57;29.60;99.90
15969;DHT22;8085;53.472;9.794;2022-07-18T16:07:34;29.70;99.90
15969;DHT22;8085;53.472;9.794;2022-07-18T16:10:18;29.60;99.90
15969;DHT22;8085;53.472;9.794;2022-07-18T16:13:16;29.40;99.90
15969;DHT22;8085;53.472;9.794;2022-07-18T16:15:39;29.50;99.90
15969;DHT22;8085;53.472;9.794;2022-07-18T16:18:43;29.40;99.90
15969;DHT22;8085;53.472;9.794;2022-07-18T16:21:24;29.40;99.90
15969;DHT22;8085;53.472;9.794;2022-07-18T16:23:51;29.30;99.90
15969;DHT22;8085;53.472;9.794;2022-07-18T16:26:18;29.30;99.90
15969;DHT22;8085;53.472;9.794;2022-07-18T16:28:45;29.40;99.90
15969;DHT22;8085;53.472;9.794;2022-07-18T16:31:12;29.40;99.90
15969;DHT22;8085;53.472;9.794;2022-07-18T16:33:39;29.30;99.90
15969;DHT22;8085;53.472;9.794;2022-07-18T16:36:06;29.30;99.90
15969;DHT22;8085;53.472;9.794;2022-07-18T16:38:35;29.30;99.90
15969;DHT22;8085;53.472;9.794;2022-07-18T16:41:02;29.40;99.90
15969;DHT22;8085;53.472;9.794;2022-07-18T16:43:30;29.40;99.90
15969;DHT22;8085;53.472;9.794;2022-07-18T16:45:57;29.40;99.90
15969;DHT22;8085;53.472;9.794;2022-07-18T16:48:24;29.40;99.90
15969;DHT22;8085;53.472;9.794;2022-07-18T16:50:52;29.30;99.90
15969;DHT22;8085;53.472;9.794;2022-07-18T16:53:19;29.20;99.90
15969;DHT22;8085;53.472;9.794;2022-07-18T16:55:49;29.10;99.90